Time;durP1;ratioP1;P1;durP2;ratioP2;P2;SDS_P1;SDS_P2;PMS_P1;PMS_P2;Temp;Humidity;BMP_temperature;BMP_pressure;BME280_temperature;BME280_humidity;BME280_pressure;Samples;Min_cycle;Max_cycle;Signal;HPM_P1;HPM_P2
2024/02/22 00:00:37;;;;;;;2.55;1.40;;;;;;;;;;5055484;28;20048;-59
2024/02/22 00:03:05;;;;;;;1.98;1.30;;;;;;;;;;5054202;28;20079;-60
2024/02/22 00:05:31;;;;;;;1.70;1.27;;;;;;;;;;5052802;28;20064;-59
2024/02/22 00:07:58;;;;;;;2.60;1.55;;;;;;;;;;5054677;28;20063;-59
2024/02/22 00:10:28;;;;;;;3.55;1.35;;;;;;;;;;5071125;28;20055;-59
2024/02/22 00:12:55;;;;;;;3.28;1.23;;;;;;;;;;5061762;28;20052;-60
2024/02/22 00:15:24;;;;;;;3.33;1.40;;;;;;;;;;5068318;28;20053;-60
2024/02/22 00:17:51;;;;;;;1.88;1.42;;;;;;;;;;5055881;28;20049;-59
2024/02/22 00:20:18;;;;;;;2.50;1.73;;;;;;;;;;5067200;28;20494;-60
2024/02/22 00:22:45;;;;;;;2.88;1.70;;;;;;;;;;5053093;28;20056;-60
2024/02/22 00:25:12;;;;;;;4.90;1.88;;;;;;;;;;5066724;28;20060;-59
2024/02/22 00:27:39;;;;;;;8.18;1.92;;;;;;;;;;5060202;28;20060;-60
2024/02/22 00:30:09;;;;;;;2.33;1.60;;;;;;;;;;5051441;28;20049;-60
2024/02/22 00:32:37;;;;;;;2.53;1.48;;;;;;;;;;5062436;28;20053;-61
2024/02/22 00:35:05;;;;;;;5.03;1.63;;;;;;;;;;5069221;28;20064;-60
2024/02/22 00:37:33;;;;;;;4.90;1.75;;;;;;;;;;5057524;28;20064;-60
2024/02/22 00:39:59;;;;;;;2.17;1.58;;;;;;;;;;5056832;28;20161;-61
2024/02/22 00:42:26;;;;;;;3.35;1.25;;;;;;;;;;5055136;28;20398;-61
2024/02/22 00:44:53;;;;;;;1.90;1.40;;;;;;;;;;5057595;28;20063;-61
2024/02/22 00:47:20;;;;;;;3.30;1.73;;;;;;;;;;5055369;28;20095;-61
2024/02/22 00:49:48;;;;;;;2.72;1.75;;;;;;;;;;5071824;28;20056;-62
2024/02/22 00:52:15;;;;;;;2.17;1.30;;;;;;;;;;5053254;28;20062;-62
2024/02/22 00:54:41;;;;;;;2.80;1.60;;;;;;;;;;5064416;28;20060;-62
2024/02/22 00:57:08;;;;;;;3.45;1.40;;;;;;;;;;5059330;28;20467;-63
2024/02/22 00:59:35;;;;;;;3.78;1.30;;;;;;;;;;5051703;28;20049;-63
2024/02/22 01:02:02;;;;;;;2.80;1.55;;;;;;;;;;5055413;28;20456;-65
2024/02/22 01:04:29;;;;;;;1.90;1.20;;;;;;;;;;5052023;28;20053;-65
2024/02/22 01:06:59;;;;;;;3.40;1.13;;;;;;;;;;5053804;28;20048;-65
2024/02/22 01:09:25;;;;;;;3.65;1.33;;;;;;;;;;5059794;28;20045;-66
2024/02/22 01:11:52;;;;;;;3.70;1.02;;;;;;;;;;5070244;28;20057;-67
2024/02/22 01:14:20;;;;;;;2.70;1.58;;;;;;;;;;5063616;28;20069;-68
2024/02/22 01:16:47;;;;;;;2.00;1.10;;;;;;;;;;5062206;28;20369;-65
2024/02/22 01:19:14;;;;;;;1.98;1.25;;;;;;;;;;5053790;28;20408;-66
2024/02/22 01:21:41;;;;;;;1.70;1.10;;;;;;;;;;5051467;28;20080;-68
2024/02/22 01:24:09;;;;;;;1.90;1.20;;;;;;;;;;5060806;28;20053;-66
2024/02/22 01:26:36;;;;;;;1.77;1.10;;;;;;;;;;5062177;28;20053;-66
2024/02/22 01:29:03;;;;;;;1.90;1.30;;;;;;;;;;5055840;28;20053;-66
2024/02/22 01:31:30;;;;;;;2.85;1.35;;;;;;;;;;5075166;28;20049;-66
2024/02/22 01:33:57;;;;;;;1.50;0.90;;;;;;;;;;5064222;28;20056;-67
2024/02/22 01:36:24;;;;;;;1.50;1.00;;;;;;;;;;5055605;28;20063;-66
2024/02/22 01:38:50;;;;;;;1.45;0.95;;;;;;;;;;5061858;28;20067;-66
2024/02/22 01:41:19;;;;;;;3.20;1.15;;;;;;;;;;5060727;28;20163;-67
2024/02/22 01:43:45;;;;;;;1.88;0.98;;;;;;;;;;5060138;28;20506;-67
2024/02/22 01:46:12;;;;;;;1.88;1.00;;;;;;;;;;5074785;28;20063;-67
2024/02/22 01:48:39;;;;;;;1.85;1.00;;;;;;;;;;5065550;28;20518;-66
2024/02/22 01:51:07;;;;;;;2.72;1.10;;;;;;;;;;5057768;28;20048;-66
2024/02/22 01:53:34;;;;;;;1.70;1.05;;;;;;;;;;5068199;28;20060;-66
2024/02/22 01:56:01;;;;;;;1.83;1.00;;;;;;;;;;5054704;28;20056;-67
2024/02/22 01:58:32;;;;;;;2.47;1.17;;;;;;;;;;5066506;28;20048;-67
2024/02/22 02:00:59;;;;;;;1.50;0.93;;;;;;;;;;5070468;28;20037;-66
2024/02/22 02:03:26;;;;;;;2.38;1.00;;;;;;;;;;5071876;28;20052;-66
2024/02/22 02:05:53;;;;;;;1.30;0.70;;;;;;;;;;5054791;28;20136;-67
2024/02/22 02:08:20;;;;;;;1.55;1.02;;;;;;;;;;5054758;28;20053;-66
2024/02/22 02:10:47;;;;;;;1.40;0.70;;;;;;;;;;5070008;28;20381;-66
2024/02/22 02:13:14;;;;;;;1.30;0.70;;;;;;;;;;5069595;28;20058;-66
2024/02/22 02:15:42;;;;;;;1.35;0.70;;;;;;;;;;5065840;28;20056;-66
2024/02/22 02:18:09;;;;;;;1.45;0.80;;;;;;;;;;5054890;28;20045;-65
2024/02/22 02:20:37;;;;;;;1.10;0.60;;;;;;;;;;5056460;28;20052;-66
2024/02/22 02:23:20;;;;;;;1.48;0.68;;;;;;;;;;5054321;28;20388;-66
2024/02/22 02:25:48;;;;;;;1.30;0.82;;;;;;;;;;5070143;28;20053;-66
2024/02/22 02:28:15;;;;;;;1.73;0.60;;;;;;;;;;5060328;28;20419;-66
2024/02/22 02:30:42;;;;;;;0.98;0.50;;;;;;;;;;5060545;28;20771;-65
2024/02/22 02:33:09;;;;;;;1.10;0.50;;;;;;;;;;5058549;28;20057;-65
2024/02/22 02:35:37;;;;;;;0.90;0.50;;;;;;;;;;5061113;28;20454;-65
2024/02/22 02:38:05;;;;;;;2.25;0.73;;;;;;;;;;5072000;28;20053;-66
2024/02/22 02:40:32;;;;;;;0.98;0.50;;;;;;;;;;5059342;28;20036;-66
2024/02/22 02:43:00;;;;;;;1.00;0.50;;;;;;;;;;5068510;28;20045;-66
2024/02/22 02:45:26;;;;;;;1.10;0.55;;;;;;;;;;5057193;28;20056;-66
2024/02/22 02:47:53;;;;;;;1.30;0.70;;;;;;;;;;5053265;28;20061;-66
2024/02/22 02:50:20;;;;;;;1.35;0.70;;;;;;;;;;5058490;28;20051;-66
2024/02/22 02:52:47;;;;;;;1.52;0.60;;;;;;;;;;5070087;28;20053;-67
2024/02/22 02:55:14;;;;;;;0.93;0.65;;;;;;;;;;5058995;28;20057;-66
2024/02/22 02:57:41;;;;;;;2.05;0.50;;;;;;;;;;5053307;28;20060;-66
2024/02/22 03:00:12;;;;;;;1.65;0.70;;;;;;;;;;5057296;28;20056;-66
2024/02/22 03:02:39;;;;;;;1.67;0.68;;;;;;;;;;5063220;28;20068;-65
2024/02/22 03:05:06;;;;;;;1.88;0.80;;;;;;;;;;5054429;28;20067;-66
2024/02/22 03:07:33;;;;;;;1.23;0.70;;;;;;;;;;5053958;28;20049;-66
2024/02/22 03:10:00;;;;;;;1.73;0.70;;;;;;;;;;5056609;28;20393;-66
2024/02/22 03:12:27;;;;;;;1.13;0.70;;;;;;;;;;5072935;28;20048;-66
2024/02/22 03:14:53;;;;;;;1.10;0.70;;;;;;;;;;5061645;28;20056;-66
2024/02/22 03:17:22;;;;;;;1.05;0.70;;;;;;;;;;5053417;28;20049;-66
2024/02/22 03:19:49;;;;;;;1.40;0.90;;;;;;;;;;5059289;28;20055;-66
2024/02/22 03:22:16;;;;;;;1.15;0.70;;;;;;;;;;5052791;28;20060;-65
2024/02/22 03:24:43;;;;;;;1.10;0.60;;;;;;;;;;5053313;28;20499;-65
2024/02/22 03:27:10;;;;;;;1.20;0.63;;;;;;;;;;5066293;28;20052;-65
2024/02/22 03:29:37;;;;;;;1.33;0.70;;;;;;;;;;5066632;28;20049;-65
2024/02/22 03:32:05;;;;;;;2.08;0.50;;;;;;;;;;5065369;28;20052;-65
2024/02/22 03:34:33;;;;;;;1.42;0.70;;;;;;;;;;5072424;28;20048;-65
2024/02/22 03:37:00;;;;;;;0.90;0.50;;;;;;;;;;5067253;28;20060;-64
2024/02/22 03:39:27;;;;;;;0.90;0.52;;;;;;;;;;5053222;28;20048;-64
2024/02/22 03:41:54;;;;;;;1.20;0.70;;;;;;;;;;5060582;28;20055;-64
2024/02/22 03:44:21;;;;;;;1.55;0.70;;;;;;;;;;5071187;28;20059;-63
2024/02/22 03:46:48;;;;;;;1.17;0.65;;;;;;;;;;5056421;28;20420;-63
2024/02/22 03:49:15;;;;;;;1.60;0.60;;;;;;;;;;5053964;28;20057;-63
2024/02/22 03:51:43;;;;;;;1.20;0.60;;;;;;;;;;5060419;28;20496;-63
2024/02/22 03:54:10;;;;;;;2.38;0.40;;;;;;;;;;5064602;28;20056;-63
2024/02/22 03:56:37;;;;;;;0.90;0.60;;;;;;;;;;5065691;28;20049;-63
2024/02/22 03:59:04;;;;;;;1.83;0.50;;;;;;;;;;5052713;28;20057;-62
2024/02/22 04:01:31;;;;;;;1.88;0.50;;;;;;;;;;5052851;28;20116;-63
2024/02/22 04:03:58;;;;;;;0.85;0.60;;;;;;;;;;5052856;28;20502;-63
2024/02/22 04:06:25;;;;;;;0.60;0.40;;;;;;;;;;5053373;28;20053;-62
2024/02/22 17:45:58;;;;;;;1.45;0.98;;;;;;;;;;4450122;28;20150;-66
2024/02/22 17:48:25;;;;;;;2.17;0.90;;;;;;;;;;5014527;28;20058;-66
2024/02/22 17:50:52;;;;;;;1.65;0.90;;;;;;;;;;5015250;28;20420;-66
2024/02/22 17:53:19;;;;;;;1.48;0.63;;;;;;;;;;5015556;28;20054;-66
2024/02/22 17:55:46;;;;;;;1.38;0.70;;;;;;;;;;5015159;28;20053;-66
2024/02/22 17:58:13;;;;;;;1.65;0.68;;;;;;;;;;5014990;28;20050;-66
2024/02/22 18:00:40;;;;;;;1.25;0.60;;;;;;;;;;5015200;28;20058;-66
2024/02/22 18:03:09;;;;;;;1.23;0.70;;;;;;;;;;5015282;28;20403;-66
2024/02/22 18:05:36;;;;;;;1.50;0.60;;;;;;;;;;5015236;28;20054;-66
2024/02/22 18:08:03;;;;;;;1.90;1.05;;;;;;;;;;5012948;28;20054;-66
2024/02/22 18:10:30;;;;;;;1.65;0.70;;;;;;;;;;4995133;28;20058;-65
2024/02/22 18:12:57;;;;;;;1.27;0.80;;;;;;;;;;5009516;28;20062;-65
2024/02/22 18:15:23;;;;;;;1.00;0.60;;;;;;;;;;5014145;28;20053;-65
2024/02/22 18:17:50;;;;;;;0.82;0.43;;;;;;;;;;5015352;28;20061;-66
2024/02/22 18:20:19;;;;;;;0.88;0.50;;;;;;;;;;5014356;28;20054;-66
2024/02/22 18:22:46;;;;;;;1.05;0.55;;;;;;;;;;5014634;28;20416;-66
2024/02/22 18:25:12;;;;;;;0.90;0.50;;;;;;;;;;5004691;28;20058;-65
2024/02/22 18:27:39;;;;;;;1.15;0.60;;;;;;;;;;5004914;28;20057;-66
2024/02/22 18:30:07;;;;;;;1.10;0.60;;;;;;;;;;5007296;28;20057;-66
2024/02/22 18:32:35;;;;;;;1.10;0.50;;;;;;;;;;5013806;28;20054;-65
2024/02/22 18:35:01;;;;;;;0.77;0.50;;;;;;;;;;5001735;28;20052;-65
2024/02/22 18:37:30;;;;;;;1.05;0.50;;;;;;;;;;5013744;28;20053;-65
2024/02/22 18:39:56;;;;;;;0.98;0.50;;;;;;;;;;5013668;28;20065;-64
2024/02/22 18:42:23;;;;;;;1.13;0.50;;;;;;;;;;5026126;28;20049;-65
2024/02/22 18:44:50;;;;;;;0.80;0.45;;;;;;;;;;5033976;28;20049;-65
2024/02/22 18:47:17;;;;;;;0.88;0.40;;;;;;;;;;5033735;28;20068;-64
2024/02/22 18:49:44;;;;;;;0.50;0.30;;;;;;;;;;5024787;28;20064;-64
2024/02/22 18:52:11;;;;;;;0.68;0.30;;;;;;;;;;5033387;28;20050;-62
2024/02/22 18:54:41;;;;;;;1.30;0.50;;;;;;;;;;5033784;28;20509;-63
2024/02/22 18:57:07;;;;;;;1.25;0.40;;;;;;;;;;5028885;28;20184;-63
2024/02/22 18:59:37;;;;;;;0.88;0.43;;;;;;;;;;5019874;28;20054;-63
2024/02/22 19:02:05;;;;;;;0.70;0.50;;;;;;;;;;5017176;28;20064;-62
2024/02/22 19:04:32;;;;;;;1.20;0.60;;;;;;;;;;5032288;28;20053;-63
2024/02/22 19:06:59;;;;;;;0.52;0.30;;;;;;;;;;5033970;28;20050;-62
2024/02/22 19:09:26;;;;;;;0.63;0.40;;;;;;;;;;5027970;28;20072;-62
2024/02/22 19:11:54;;;;;;;1.67;0.50;;;;;;;;;;5020044;28;20046;-62
2024/02/22 19:14:21;;;;;;;1.80;0.50;;;;;;;;;;5024068;28;20053;-63
2024/02/22 19:16:48;;;;;;;1.92;0.60;;;;;;;;;;5031189;28;20053;-63
2024/02/22 19:19:14;;;;;;;1.35;0.38;;;;;;;;;;5030679;28;20053;-65
2024/02/22 19:21:42;;;;;;;0.98;0.40;;;;;;;;;;5022986;28;20056;-64
2024/02/22 19:24:09;;;;;;;0.80;0.38;;;;;;;;;;5032289;28;20523;-67
2024/02/22 19:26:36;;;;;;;2.88;0.50;;;;;;;;;;5020630;28;20049;-63
2024/02/22 19:29:04;;;;;;;1.13;0.63;;;;;;;;;;5031018;28;20076;-63
2024/02/22 19:31:34;;;;;;;1.23;0.60;;;;;;;;;;5031939;28;20045;-63
2024/02/22 19:34:01;;;;;;;1.17;0.60;;;;;;;;;;5027343;28;20053;-63
2024/02/22 19:36:30;;;;;;;1.90;0.60;;;;;;;;;;5031009;28;20079;-63
2024/02/22 19:38:57;;;;;;;1.52;0.60;;;;;;;;;;5030326;28;20061;-64
2024/02/22 19:41:23;;;;;;;2.65;0.80;;;;;;;;;;5028158;28;20072;-67
2024/02/22 19:43:51;;;;;;;3.53;1.00;;;;;;;;;;5031751;28;20049;-66
2024/02/22 19:46:22;;;;;;;6.63;1.30;;;;;;;;;;5032759;28;20053;-72
2024/02/22 19:48:52;;;;;;;2.53;1.17;;;;;;;;;;5033030;28;20488;-68
2024/02/22 19:51:19;;;;;;;1.05;0.57;;;;;;;;;;5032574;28;20058;-67
2024/02/22 19:53:47;;;;;;;1.70;0.70;;;;;;;;;;5032412;28;20057;-71
2024/02/22 19:56:13;;;;;;;3.05;0.88;;;;;;;;;;5032652;28;20060;-71
2024/02/22 19:58:40;;;;;;;1.63;0.52;;;;;;;;;;5033049;28;20049;-73
2024/02/22 20:01:07;;;;;;;2.28;0.70;;;;;;;;;;5032619;28;20057;-71
2024/02/22 20:03:36;;;;;;;2.67;0.90;;;;;;;;;;5032860;28;20068;-72
2024/02/22 20:06:03;;;;;;;4.40;0.90;;;;;;;;;;5032396;28;21555;-71
2024/02/22 20:08:29;;;;;;;3.47;1.08;;;;;;;;;;5032793;28;20491;-71
2024/02/22 20:10:58;;;;;;;6.95;1.85;;;;;;;;;;5031985;28;20061;-71
2024/02/22 20:13:25;;;;;;;5.63;1.33;;;;;;;;;;5032555;28;20056;-71
2024/02/22 20:15:51;;;;;;;5.32;1.60;;;;;;;;;;5032883;28;20056;-71
2024/02/22 20:18:19;;;;;;;10.05;2.45;;;;;;;;;;5032479;28;20396;-71
2024/02/22 20:20:48;;;;;;;6.30;1.73;;;;;;;;;;5032443;28;20057;-69
2024/02/22 20:23:16;;;;;;;5.57;1.45;;;;;;;;;;5032142;28;20519;-70
2024/02/22 20:25:43;;;;;;;8.95;2.03;;;;;;;;;;5032327;28;20053;-69
2024/02/22 20:28:10;;;;;;;5.32;1.60;;;;;;;;;;5032264;28;20068;-69
2024/02/22 20:30:37;;;;;;;7.18;1.95;;;;;;;;;;5032388;28;20484;-67
2024/02/22 20:33:06;;;;;;;7.00;1.85;;;;;;;;;;5031725;28;20522;-67
2024/02/22 20:35:32;;;;;;;6.50;1.73;;;;;;;;;;5031973;28;20060;-65
2024/02/22 20:38:01;;;;;;;7.00;1.80;;;;;;;;;;5032262;28;20057;-64
2024/02/22 20:40:28;;;;;;;6.00;1.70;;;;;;;;;;5031964;28;20462;-65
2024/02/22 20:42:57;;;;;;;8.00;1.70;;;;;;;;;;5032145;28;20080;-65
2024/02/22 20:45:24;;;;;;;6.93;2.10;;;;;;;;;;5031962;28;20057;-65
2024/02/22 20:47:51;;;;;;;9.80;2.50;;;;;;;;;;5031444;28;21025;-65
2024/02/22 20:50:18;;;;;;;5.72;2.15;;;;;;;;;;5031790;28;20060;-67
2024/02/22 20:52:44;;;;;;;6.28;1.80;;;;;;;;;;5031659;28;20057;-67
2024/02/22 20:55:13;;;;;;;5.85;2.17;;;;;;;;;;5031575;28;20049;-67
2024/02/22 20:57:40;;;;;;;7.07;1.92;;;;;;;;;;5032440;28;20053;-68
2024/02/22 21:00:09;;;;;;;5.57;1.52;;;;;;;;;;5032158;28;20053;-68
2024/02/22 21:02:36;;;;;;;5.65;1.63;;;;;;;;;;5032268;28;20061;-68
2024/02/22 21:05:03;;;;;;;5.05;1.33;;;;;;;;;;5031814;28;20101;-67
2024/02/22 21:07:30;;;;;;;4.55;1.33;;;;;;;;;;5032045;28;20053;-68
2024/02/22 21:09:57;;;;;;;9.68;1.50;;;;;;;;;;5031648;28;20060;-68
2024/02/22 21:12:25;;;;;;;4.38;1.50;;;;;;;;;;5032057;28;20053;-68
2024/02/22 21:14:52;;;;;;;5.10;1.30;;;;;;;;;;5031698;28;20411;-68
2024/02/22 21:17:19;;;;;;;4.22;1.40;;;;;;;;;;5031910;28;20061;-67
2024/02/22 21:19:46;;;;;;;4.85;1.40;;;;;;;;;;5032055;28;20054;-66
2024/02/22 21:22:12;;;;;;;4.30;1.60;;;;;;;;;;5031932;28;20076;-67
2024/02/22 21:24:43;;;;;;;4.00;1.40;;;;;;;;;;5031580;28;20049;-68
2024/02/22 21:27:09;;;;;;;8.45;1.60;;;;;;;;;;5032556;28;20049;-67
2024/02/22 21:29:38;;;;;;;5.70;1.10;;;;;;;;;;5031426;28;20064;-67
2024/02/22 21:32:07;;;;;;;9.48;1.80;;;;;;;;;;5031740;28;20053;-68
2024/02/22 21:34:33;;;;;;;8.52;1.25;;;;;;;;;;5031462;28;20053;-70
2024/02/22 21:37:00;;;;;;;5.63;1.20;;;;;;;;;;5031801;28;20057;-69
2024/02/22 21:39:27;;;;;;;4.05;1.35;;;;;;;;;;5031654;28;20053;-69
2024/02/22 21:41:54;;;;;;;4.50;1.40;;;;;;;;;;5031547;28;20072;-70
2024/02/22 21:44:21;;;;;;;6.57;1.85;;;;;;;;;;5031737;28;20065;-69
2024/02/22 21:46:50;;;;;;;5.97;1.60;;;;;;;;;;5034696;28;20404;-69
2024/02/22 21:49:17;;;;;;;4.40;1.10;;;;;;;;;;5035185;28;20491;-70
2024/02/22 21:51:43;;;;;;;4.13;1.40;;;;;;;;;;5035332;28;20053;-69
2024/02/22 21:54:10;;;;;;;4.97;1.52;;;;;;;;;;5035302;28;20054;-70
2024/02/22 21:56:37;;;;;;;4.88;1.45;;;;;;;;;;5035344;28;20419;-70
2024/02/22 21:59:04;;;;;;;5.72;1.33;;;;;;;;;;5035032;28;20423;-69
2024/02/22 22:01:31;;;;;;;3.47;1.30;;;;;;;;;;5035268;28;20049;-70
2024/02/22 22:03:59;;;;;;;5.95;1.20;;;;;;;;;;5034973;28;20076;-70
2024/02/22 22:06:26;;;;;;;4.95;1.90;;;;;;;;;;5035341;28;20057;-70
2024/02/22 22:08:53;;;;;;;6.95;1.52;;;;;;;;;;5035009;28;20049;-69
2024/02/22 22:11:19;;;;;;;7.00;1.60;;;;;;;;;;5035093;28;20061;-69
2024/02/22 22:13:46;;;;;;;9.15;1.50;;;;;;;;;;5035184;28;20060;-70
2024/02/22 22:16:13;;;;;;;5.10;1.30;;;;;;;;;;5034875;28;20054;-70
2024/02/22 22:18:40;;;;;;;7.45;1.65;;;;;;;;;;5034384;28;20061;-70
2024/02/22 22:21:08;;;;;;;6.10;1.40;;;;;;;;;;5034273;28;20053;-69
2024/02/22 22:23:35;;;;;;;5.22;1.23;;;;;;;;;;5034406;28;20053;-69
2024/02/22 22:26:02;;;;;;;5.07;1.60;;;;;;;;;;5034774;28;20049;-69
2024/02/22 22:28:29;;;;;;;7.85;1.65;;;;;;;;;;5034565;28;20057;-69
2024/02/22 22:30:56;;;;;;;4.80;1.63;;;;;;;;;;5034732;28;20054;-68
2024/02/22 22:33:23;;;;;;;2.75;0.90;;;;;;;;;;5034493;28;20050;-68
2024/02/22 22:35:49;;;;;;;6.13;1.65;;;;;;;;;;5034437;28;20059;-68
2024/02/22 22:38:18;;;;;;;4.35;1.17;;;;;;;;;;5034373;28;20057;-68
2024/02/22 22:40:45;;;;;;;4.03;1.15;;;;;;;;;;5033664;28;20049;-67
2024/02/22 22:43:11;;;;;;;5.32;1.30;;;;;;;;;;5034169;28;20060;-68
2024/02/22 22:45:38;;;;;;;2.50;1.08;;;;;;;;;;5034267;28;20117;-68
2024/02/22 22:48:05;;;;;;;8.13;1.52;;;;;;;;;;5034534;28;20049;-68
2024/02/22 22:50:32;;;;;;;3.75;1.17;;;;;;;;;;5034315;28;20049;-67
2024/02/22 22:53:03;;;;;;;4.45;1.33;;;;;;;;;;5034406;28;20056;-68
2024/02/22 22:55:31;;;;;;;3.90;1.60;;;;;;;;;;5033822;28;20424;-67
2024/02/22 22:57:59;;;;;;;4.32;1.20;;;;;;;;;;5033337;28;20060;-66
2024/02/22 23:00:26;;;;;;;3.83;1.05;;;;;;;;;;5034158;28;20064;-66
2024/02/22 23:02:53;;;;;;;4.63;1.63;;;;;;;;;;5033786;28;20045;-66
2024/02/22 23:05:20;;;;;;;1.90;0.80;;;;;;;;;;5034139;28;20072;-66
2024/02/22 23:07:47;;;;;;;6.25;1.27;;;;;;;;;;5033960;28;20057;-66
2024/02/22 23:10:14;;;;;;;4.32;1.10;;;;;;;;;;5033570;28;20519;-66
2024/02/22 23:12:42;;;;;;;4.32;1.13;;;;;;;;;;5034078;28;20053;-66
2024/02/22 23:15:09;;;;;;;3.55;1.13;;;;;;;;;;5033958;28;20057;-66
2024/02/22 23:17:36;;;;;;;3.08;0.90;;;;;;;;;;5033995;28;20407;-66
2024/02/22 23:20:03;;;;;;;3.38;1.02;;;;;;;;;;5033839;28;20061;-65
2024/02/22 23:22:30;;;;;;;2.95;0.95;;;;;;;;;;5033842;28;20060;-65
2024/02/22 23:24:58;;;;;;;3.53;0.90;;;;;;;;;;5033489;28;20053;-64
2024/02/22 23:27:25;;;;;;;2.35;0.85;;;;;;;;;;5033733;28;20053;-65
2024/02/22 23:29:53;;;;;;;1.90;0.60;;;;;;;;;;5033709;28;20065;-64
2024/02/22 23:32:20;;;;;;;2.05;0.75;;;;;;;;;;5033717;28;20060;-65
2024/02/22 23:34:47;;;;;;;2.10;0.90;;;;;;;;;;5033664;28;20057;-64
2024/02/22 23:37:14;;;;;;;1.33;0.70;;;;;;;;;;5033416;28;20049;-64
2024/02/22 23:39:41;;;;;;;2.75;0.95;;;;;;;;;;5033669;28;20053;-64
2024/02/22 23:42:08;;;;;;;5.65;0.82;;;;;;;;;;5033373;28;20061;-64
2024/02/22 23:44:34;;;;;;;2.20;0.70;;;;;;;;;;5033173;28;20072;-64
2024/02/22 23:47:03;;;;;;;1.65;0.70;;;;;;;;;;5033185;28;20049;-64
2024/02/22 23:49:29;;;;;;;1.30;0.60;;;;;;;;;;5033270;28;20407;-64
2024/02/22 23:51:56;;;;;;;1.90;0.70;;;;;;;;;;5033281;28;20395;-63
2024/02/22 23:54:23;;;;;;;1.27;0.57;;;;;;;;;;5033216;28;20400;-63
2024/02/22 23:56:50;;;;;;;1.58;0.75;;;;;;;;;;5033167;28;20049;-63
2024/02/22 23:59:17;;;;;;;1.60;0.60;;;;;;;;;;5033161;28;20484;-63
